Time;durP1;ratioP1;P1;durP2;ratioP2;P2;SDS_P1;SDS_P2;PMS_P1;PMS_P2;Temp;Humidity;BMP_temperature;BMP_pressure;BME280_temperature;BME280_humidity;BME280_pressure;Samples;Min_cycle;Max_cycle;Signal;HPM_P1;HPM_P2
2023/05/06 00:00:56;;;;;;;5.15;4.65;;;;;;;10.12;100.00;93103.91;2088480;28;20029;-85
2023/05/06 00:02:05;;;;;;;7.05;4.38;;;;;;;10.06;100.00;93104.41;2107820;28;20032;-85
2023/05/06 00:03:16;;;;;;;4.55;3.70;;;;;;;10.03;100.00;93102.53;2094984;28;20489;-84
2023/05/06 00:04:27;;;;;;;4.30;3.72;;;;;;;10.09;100.00;93103.56;2090702;28;20048;-87
2023/05/06 00:05:37;;;;;;;5.18;3.88;;;;;;;10.08;100.00;93102.06;2094712;28;20022;-86
2023/05/06 00:06:48;;;;;;;10.85;4.40;;;;;;;10.08;100.00;93107.38;2105329;27;20020;-84
2023/05/06 00:07:58;;;;;;;8.48;4.10;;;;;;;10.11;100.00;93103.16;2100924;28;20032;-83
2023/05/06 00:09:05;;;;;;;7.68;4.40;;;;;;;10.11;100.00;93100.47;2095545;28;20504;-87
2023/05/06 00:10:14;;;;;;;8.10;4.20;;;;;;;10.13;100.00;93100.06;2096066;28;20028;-85
2023/05/06 00:11:28;;;;;;;7.00;3.63;;;;;;;10.11;100.00;93092.47;2104581;28;20508;-87
2023/05/06 00:12:59;;;;;;;5.80;3.85;;;;;;;10.19;100.00;93099.19;2101099;28;20182;-86
2023/05/06 00:14:05;;;;;;;10.45;4.13;;;;;;;10.20;100.00;93107.94;2093590;28;20032;-86
2023/05/06 00:15:14;;;;;;;5.18;3.70;;;;;;;10.04;100.00;93101.38;2098820;28;20028;-86
2023/05/06 00:16:27;;;;;;;7.03;3.95;;;;;;;10.05;100.00;93100.22;2093685;28;20023;-85
2023/05/06 00:17:32;;;;;;;8.57;4.00;;;;;;;10.11;100.00;93097.06;2087468;28;20039;-86
2023/05/06 00:18:42;;;;;;;7.95;3.65;;;;;;;10.14;100.00;93096.22;2093099;28;20082;-86
2023/05/06 00:20:20;;;;;;;4.47;3.83;;;;;;;10.15;100.00;93097.75;2098353;28;20570;-85
2023/05/06 00:21:28;;;;;;;5.85;3.80;;;;;;;10.11;100.00;93092.47;2098356;28;20366;-85
2023/05/06 00:22:40;;;;;;;6.30;4.03;;;;;;;10.16;100.00;93093.91;2097945;28;20498;-86
2023/05/06 00:23:46;;;;;;;5.32;3.78;;;;;;;10.14;100.00;93098.88;2099934;28;20310;-84
2023/05/06 00:24:54;;;;;;;6.78;3.90;;;;;;;10.13;100.00;93100.06;2102368;28;20518;-87
2023/05/06 00:26:29;;;;;;;5.03;3.80;;;;;;;10.10;100.00;93101.66;2094171;28;20123;-85
2023/05/06 00:27:39;;;;;;;3.85;3.50;;;;;;;10.11;100.00;93099.72;2102813;28;20031;-85
2023/05/06 00:28:44;;;;;;;5.82;3.58;;;;;;;10.13;100.00;93102.72;2099200;28;20020;-85
2023/05/06 00:30:13;;;;;;;6.90;3.92;;;;;;;10.12;100.00;93098.56;2107180;28;20385;-83
2023/05/06 00:31:21;;;;;;;6.63;3.70;;;;;;;10.03;100.00;93102.53;2091171;28;20031;-85
2023/05/06 00:32:33;;;;;;;6.47;3.40;;;;;;;9.96;100.00;93096.56;2094638;28;20047;-86
2023/05/06 00:33:46;;;;;;;5.90;3.88;;;;;;;10.01;100.00;93099.53;2094297;28;20035;-87
2023/05/06 00:34:56;;;;;;;6.13;3.50;;;;;;;10.05;100.00;93099.44;2088790;28;20025;-86
2023/05/06 00:36:05;;;;;;;5.60;3.33;;;;;;;10.11;100.00;93099.72;2098610;28;20027;-84
2023/05/06 00:37:14;;;;;;;5.25;3.70;;;;;;;10.08;100.00;93098.63;2110458;27;20096;-86
2023/05/06 00:38:23;;;;;;;8.10;3.78;;;;;;;10.03;100.00;93097.19;2098586;28;20020;-88
2023/05/06 00:39:35;;;;;;;3.97;3.53;;;;;;;10.02;100.00;93101.03;2092318;28;20032;-87
2023/05/06 00:40:44;;;;;;;8.20;3.63;;;;;;;10.10;100.00;93096.31;2101957;28;20020;-88
2023/05/06 00:42:05;;;;;;;4.40;3.40;;;;;;;10.14;100.00;93090.88;2097455;28;20012;-85
2023/05/06 00:43:21;;;;;;;4.28;3.58;;;;;;;10.16;100.00;93086.63;2102594;28;20110;-84
2023/05/06 00:44:50;;;;;;;4.43;3.47;;;;;;;10.17;100.00;93090.06;2102529;28;20024;-87
2023/05/06 00:45:59;;;;;;;7.22;3.55;;;;;;;10.06;100.00;93099.06;2094185;28;20111;-87
2023/05/06 00:47:08;;;;;;;5.63;3.80;;;;;;;10.28;100.00;93096.72;2099795;27;20397;-87
2023/05/06 00:49:17;;;;;;;5.35;3.20;;;;;;;10.29;100.00;93092.13;2101124;28;20489;-85
2023/05/06 00:50:47;;;;;;;3.50;3.20;;;;;;;10.27;100.00;93100.56;2106213;28;20512;-87
2023/05/06 00:51:53;;;;;;;7.95;2.92;;;;;;;10.23;100.00;93105.19;2103217;28;20036;-88
2023/05/06 00:55:22;;;;;;;15.50;4.50;;;;;;;10.23;100.00;93099.84;2091098;28;20047;-84
2023/05/06 00:57:03;;;;;;;3.15;2.90;;;;;;;10.18;100.00;93094.22;2098113;28;20031;-87
2023/05/06 00:58:15;;;;;;;4.82;3.20;;;;;;;10.06;100.00;93099.06;2097112;28;20040;-85
2023/05/06 00:59:24;;;;;;;7.63;3.85;;;;;;;9.99;100.00;93096.50;2088013;28;20036;-86
2023/05/06 01:00:32;;;;;;;6.43;3.85;;;;;;;10.05;100.00;93094.88;2090347;28;20039;-87
2023/05/06 01:01:38;;;;;;;5.28;3.92;;;;;;;10.05;100.00;93097.56;2093687;28;20017;-85
2023/05/06 01:02:48;;;;;;;8.50;4.07;;;;;;;10.00;100.00;93098.00;2090867;28;20499;-84
2023/05/06 01:03:57;;;;;;;4.28;3.88;;;;;;;10.00;100.00;93103.34;2097167;28;20751;-86
2023/05/06 01:05:05;;;;;;;4.20;3.80;;;;;;;9.97;100.00;93096.19;2093532;28;20135;-86
2023/05/06 01:06:26;;;;;;;9.55;4.45;;;;;;;9.88;100.00;93095.97;2092959;28;20031;-87
2023/05/06 01:07:51;;;;;;;4.75;3.65;;;;;;;9.76;100.00;93100.00;2099971;28;20081;-84
2023/05/06 01:09:20;;;;;;;7.78;4.43;;;;;;;9.79;100.00;93095.78;2096200;28;20394;-87
2023/05/06 01:10:38;;;;;;;6.00;4.00;;;;;;;9.78;100.00;93089.66;2100564;28;20123;-85
2023/05/06 01:12:02;;;;;;;6.32;3.97;;;;;;;9.77;100.00;93098.09;2098504;28;20051;-85
2023/05/06 01:13:44;;;;;;;9.32;4.38;;;;;;;9.70;100.00;93091.00;2106548;28;20034;-87
2023/05/06 01:15:15;;;;;;;5.88;3.95;;;;;;;9.71;100.00;93094.41;2103603;28;20080;-85
2023/05/06 01:16:29;;;;;;;4.07;3.70;;;;;;;9.71;100.00;93081.06;2104605;28;20031;-86
2023/05/06 01:17:41;;;;;;;5.05;3.83;;;;;;;9.64;100.00;93094.53;2098746;28;20386;-87
2023/05/06 01:18:53;;;;;;;6.13;3.75;;;;;;;9.57;100.00;93088.16;2097103;28;20028;-86
2023/05/06 01:20:06;;;;;;;12.77;4.05;;;;;;;9.53;100.00;93081.41;2095221;28;20032;-85
2023/05/06 01:21:16;;;;;;;7.15;3.90;;;;;;;9.52;100.00;93074.53;2090120;28;20032;-88
2023/05/06 01:22:26;;;;;;;4.10;3.63;;;;;;;9.49;100.00;93086.78;2090976;28;20273;-84
2023/05/06 01:23:50;;;;;;;;;;;;;;;9.55;100.00;93079.81;2096414;28;20052;-87
2023/05/06 01:24:59;;;;;;;9.20;3.50;;;;;;;9.52;100.00;93077.94;2093757;28;19947;-87
2023/05/06 01:26:03;;;;;;;8.60;3.83;;;;;;;9.52;100.00;93083.28;2086699;28;20040;-86
2023/05/06 01:27:08;;;;;;;4.68;3.30;;;;;;;9.48;100.00;93085.28;2088731;28;20025;-87
2023/05/06 01:28:16;;;;;;;8.88;4.07;;;;;;;9.43;100.00;93085.75;2101166;28;20028;-84
2023/05/06 01:29:24;;;;;;;14.88;3.90;;;;;;;9.41;100.00;93084.66;2098142;28;20028;-84
2023/05/06 01:30:51;;;;;;;62.15;5.75;;;;;;;9.44;100.00;93078.50;2096346;28;20016;-84
2023/05/06 01:32:02;;;;;;;5.13;4.10;;;;;;;9.38;100.00;93078.22;2108575;27;20460;-83
2023/05/06 01:33:16;;;;;;;4.22;3.65;;;;;;;9.37;100.00;93083.97;2109350;28;20039;-86
2023/05/06 01:34:36;;;;;;;4.93;3.85;;;;;;;9.33;100.00;93084.03;2099261;28;20020;-85
2023/05/06 01:36:07;;;;;;;4.45;3.80;;;;;;;9.22;100.00;93078.09;2097900;28;20017;-84
2023/05/06 01:37:12;;;;;;;11.60;3.75;;;;;;;9.14;100.00;93090.84;2114436;27;20430;-86
2023/05/06 01:38:36;;;;;;;4.72;3.58;;;;;;;9.10;100.00;93094.72;2102125;28;20032;-85
2023/05/06 01:39:47;;;;;;;4.72;3.33;;;;;;;9.06;100.00;93092.09;2102290;28;20111;-84
2023/05/06 01:41:02;;;;;;;5.22;3.50;;;;;;;9.02;100.00;93096.75;2098780;28;20391;-87
2023/05/06 01:42:10;;;;;;;3.60;3.30;;;;;;;8.95;100.00;93097.59;2103648;27;20036;-85
2023/05/06 01:43:22;;;;;;;3.90;3.50;;;;;;;8.92;100.00;93093.09;2100627;28;20502;-86
2023/05/06 01:44:33;;;;;;;4.35;3.15;;;;;;;8.87;100.00;93098.09;2088479;28;20088;-84
2023/05/06 01:45:48;;;;;;;7.97;3.10;;;;;;;8.84;100.00;93091.69;2095659;28;20025;-86
2023/05/06 01:47:02;;;;;;;9.93;3.45;;;;;;;8.81;100.00;93095.16;2094218;28;20289;-87
2023/05/06 01:48:06;;;;;;;5.03;3.40;;;;;;;8.76;100.00;93084.97;2091253;28;20500;-86
2023/05/06 01:49:54;;;;;;;8.18;3.20;;;;;;;8.70;100.00;93100.66;2096540;28;20093;-86
2023/05/06 01:51:03;;;;;;;5.07;3.75;;;;;;;8.68;100.00;93088.88;2101910;28;20024;-85
2023/05/06 01:52:12;;;;;;;3.53;3.22;;;;;;;8.72;100.00;93095.66;2093553;28;20472;-83
2023/05/06 01:53:29;;;;;;;4.35;3.30;;;;;;;8.68;100.00;93094.97;2095675;28;20035;-86
2023/05/06 01:54:30;;;;;;;7.95;4.00;;;;;;;8.65;100.00;93095.78;2092997;28;20537;-86
2023/05/06 01:55:39;;;;;;;4.40;3.60;;;;;;;8.66;100.00;93099.97;2096608;28;20035;-87
2023/05/06 01:56:43;;;;;;;6.68;3.70;;;;;;;8.68;100.00;93102.22;2088500;28;20021;-87
2023/05/06 01:57:44;;;;;;;5.18;3.63;;;;;;;8.61;100.00;93097.00;2084598;28;20040;-86
2023/05/06 01:58:50;;;;;;;8.00;3.70;;;;;;;8.57;100.00;93094.38;2094958;28;20020;-86
2023/05/06 01:59:52;;;;;;;5.80;4.10;;;;;;;8.58;100.00;93090.56;2084817;28;20032;-88
2023/05/06 02:01:02;;;;;;;5.93;3.40;;;;;;;8.46;100.00;93091.84;2112454;27;20221;-89
2023/05/06 02:02:08;;;;;;;5.60;3.60;;;;;;;8.38;100.00;93095.03;2105320;28;20036;-85
2023/05/06 02:03:10;;;;;;;6.07;3.40;;;;;;;8.37;100.00;93086.28;2082845;28;20116;-86
2023/05/06 02:04:18;;;;;;;5.10;3.03;;;;;;;8.37;100.00;93088.19;2096444;28;20135;-84
2023/05/06 02:05:27;;;;;;;4.20;3.58;;;;;;;8.33;100.00;93086.28;2105930;28;20039;-87
2023/05/06 02:06:36;;;;;;;3.70;3.20;;;;;;;8.32;100.00;93087.47;2101359;28;20024;-86
2023/05/06 02:07:43;;;;;;;4.05;3.42;;;;;;;8.29;100.00;93085.59;2097903;28;20092;-87
2023/05/06 02:08:50;;;;;;;5.68;3.10;;;;;;;8.28;100.00;93083.34;2101522;28;20024;-86
2023/05/06 02:09:56;;;;;;;5.65;3.45;;;;;;;8.26;100.00;93078.41;2094918;28;20032;-88
2023/05/06 02:10:58;;;;;;;3.80;3.40;;;;;;;8.22;100.00;93079.63;2090328;28;20028;-88
2023/05/06 02:12:04;;;;;;;5.30;3.05;;;;;;;8.23;100.00;93073.88;2097144;28;20032;-86
2023/05/06 02:13:13;;;;;;;3.40;3.10;;;;;;;8.20;100.00;93087.25;2110797;28;20036;-84
2023/05/06 02:14:22;;;;;;;3.33;2.95;;;;;;;8.16;100.00;93081.97;2100316;28;20039;-85
2023/05/06 02:15:32;;;;;;;4.78;2.88;;;;;;;8.11;100.00;93084.31;2097186;28;20116;-85
2023/05/06 02:16:59;;;;;;;3.33;3.03;;;;;;;8.10;100.00;93078.25;2107068;28;20492;-84
2023/05/06 02:18:07;;;;;;;3.55;3.25;;;;;;;8.10;100.00;93077.50;2103472;28;20047;-85
2023/05/06 02:47:01;;;;;;;5.95;2.88;;;;;;;7.73;100.00;93081.75;2558649;23;20028;-86
2023/05/06 02:48:11;;;;;;;16.20;3.70;;;;;;;7.61;100.00;93080.38;2544780;23;20002;-87
2023/05/06 02:49:16;;;;;;;4.03;2.90;;;;;;;7.61;100.00;93080.38;2523052;23;20002;-88
2023/05/06 02:50:21;;;;;;;3.92;3.00;;;;;;;7.53;100.00;93076.28;2522921;23;20029;-88
2023/05/06 02:51:35;;;;;;;4.15;3.00;;;;;;;7.56;100.00;93078.16;2536804;23;20037;-86
2023/05/06 02:52:48;;;;;;;5.38;3.40;;;;;;;7.56;100.00;93078.16;2546156;23;20004;-87
2023/05/06 02:53:54;;;;;;;2.88;2.67;;;;;;;7.47;100.00;93083.19;2536818;23;20010;-86
2023/05/06 02:55:03;;;;;;;7.93;2.97;;;;;;;7.45;100.00;93075.59;2535124;23;20062;-85
2023/05/06 02:56:14;;;;;;;3.75;2.70;;;;;;;7.47;100.00;93073.28;2535810;23;20017;-88
2023/05/06 02:57:18;;;;;;;3.38;3.08;;;;;;;7.49;100.00;93070.97;2535997;23;20070;-86
2023/05/06 02:58:26;;;;;;;3.10;2.83;;;;;;;7.51;100.00;93082.00;2534563;23;20006;-85
2023/05/06 02:59:39;;;;;;;8.55;3.63;;;;;;;7.52;100.00;93070.19;2557635;23;20017;-86
2023/05/06 03:00:47;;;;;;;3.53;3.22;;;;;;;7.51;100.00;93067.94;2534056;23;20006;-87
2023/05/06 03:01:51;;;;;;;3.75;3.08;;;;;;;7.46;100.00;93063.03;2512535;23;20010;-86
2023/05/06 03:03:05;;;;;;;4.25;3.28;;;;;;;7.50;100.00;93069.06;2526552;23;20381;-85
2023/05/06 03:04:09;;;;;;;4.25;3.30;;;;;;;7.55;100.00;93069.41;2522786;23;20010;-86
2023/05/06 03:05:12;;;;;;;4.15;2.88;;;;;;;7.60;100.00;93070.88;2521986;23;20038;-87
2023/05/06 03:06:15;;;;;;;5.68;3.28;;;;;;;7.53;100.00;93071.69;2536154;23;20056;-87
2023/05/06 03:07:30;;;;;;;3.78;3.03;;;;;;;7.48;100.00;93076.72;2547812;23;20009;-84
2023/05/06 03:08:39;;;;;;;3.38;3.08;;;;;;;7.39;100.00;93065.78;2550749;23;20001;-85
2023/05/06 03:09:48;;;;;;;3.55;3.30;;;;;;;7.39;100.00;93069.19;2547667;23;20024;-87
2023/05/06 03:10:58;;;;;;;6.35;2.80;;;;;;;7.41;100.00;93068.78;2549020;23;20436;-87
2023/05/06 03:12:06;;;;;;;;;;;;;;;7.38;100.00;93067.69;2559932;23;20067;-88
2023/05/06 03:13:13;;;;;;;3.65;3.28;;;;;;;7.36;100.00;93069.97;2547753;23;19908;-84
2023/05/06 03:14:19;;;;;;;7.10;3.38;;;;;;;7.34;100.00;93066.97;2550059;23;20065;-86
2023/05/06 03:15:24;;;;;;;4.38;3.35;;;;;;;7.29;100.00;93070.06;2546660;23;20016;-88
2023/05/06 03:16:33;;;;;;;6.22;3.03;;;;;;;7.26;100.00;93062.88;2535728;23;20005;-85
2023/05/06 03:17:38;;;;;;;4.47;3.00;;;;;;;7.18;100.00;93064.09;2536872;23;20092;-85
2023/05/06 03:18:43;;;;;;;4.78;3.20;;;;;;;7.20;100.00;93061.78;2537757;23;20081;-85
2023/05/06 03:19:52;;;;;;;4.03;3.15;;;;;;;7.24;100.00;93065.94;2525907;23;20441;-87
2023/05/06 03:21:00;;;;;;;3.70;2.85;;;;;;;7.15;100.00;93068.28;2529001;23;20127;-86
2023/05/06 03:22:06;;;;;;;5.95;3.50;;;;;;;7.18;100.00;93058.78;2539045;23;20002;-84
2023/05/06 03:23:15;;;;;;;5.10;3.80;;;;;;;7.16;100.00;93058.44;2549690;23;20359;-87
2023/05/06 03:24:22;;;;;;;3.92;3.17;;;;;;;7.11;100.00;93056.94;2553547;23;20073;-84
2023/05/06 03:25:30;;;;;;;3.53;3.22;;;;;;;7.15;100.00;93051.59;2526124;23;20078;-85
2023/05/06 03:26:38;;;;;;;5.32;3.00;;;;;;;7.10;100.00;93057.34;2525822;23;20447;-85
2023/05/06 03:27:45;;;;;;;3.42;3.05;;;;;;;7.03;100.00;93056.25;2548544;23;20057;-85
2023/05/06 03:28:51;;;;;;;3.42;3.13;;;;;;;7.11;100.00;93054.28;2535283;23;20006;-86
2023/05/06 03:29:59;;;;;;;5.25;3.65;;;;;;;7.05;100.00;93053.94;2525207;23;20016;-84
2023/05/06 03:31:04;;;;;;;4.57;3.53;;;;;;;7.07;100.00;93056.25;2525038;23;20432;-86
2023/05/06 03:32:13;;;;;;;3.88;3.47;;;;;;;6.99;100.00;93052.13;2534034;23;20014;-86
2023/05/06 03:33:21;;;;;;;6.03;3.35;;;;;;;6.93;100.00;93049.13;2556771;23;20097;-85
2023/05/06 03:34:29;;;;;;;4.28;3.08;;;;;;;6.91;100.00;93056.75;2543250;23;20012;-86
2023/05/06 03:35:36;;;;;;;6.30;3.60;;;;;;;6.94;100.00;93050.66;2523397;23;20680;-86
2023/05/06 03:36:45;;;;;;;10.10;3.58;;;;;;;6.88;100.00;93057.53;2521458;23;20009;-87
2023/05/06 03:37:56;;;;;;;8.88;3.58;;;;;;;6.88;100.00;93059.44;2511387;23;20036;-87
2023/05/06 03:39:07;;;;;;;9.07;3.63;;;;;;;6.86;100.00;93062.50;2536163;23;20013;-84
2023/05/06 03:40:19;;;;;;;8.38;3.47;;;;;;;6.89;100.00;93060.94;2544228;23;20010;-87
2023/05/06 03:41:27;;;;;;;5.32;3.40;;;;;;;6.85;100.00;93068.97;2521181;23;20635;-85
2023/05/06 03:42:35;;;;;;;3.83;3.53;;;;;;;6.80;100.00;93056.06;2523006;23;20421;-86
2023/05/06 03:43:51;;;;;;;7.28;2.85;;;;;;;6.78;100.00;93064.44;2522370;23;20042;-87
2023/05/06 03:45:02;;;;;;;4.82;3.25;;;;;;;6.74;100.00;93060.31;2534959;23;20467;-86
2023/05/06 03:46:13;;;;;;;4.82;3.53;;;;;;;6.75;100.00;93064.47;2533911;23;20037;-86
2023/05/06 03:47:23;;;;;;;6.70;3.30;;;;;;;6.73;100.00;93058.81;2508419;23;20361;-86
2023/05/06 03:48:30;;;;;;;3.72;3.33;;;;;;;6.80;100.00;93056.84;2499323;23;20066;-86
2023/05/06 03:49:38;;;;;;;4.35;3.30;;;;;;;6.75;100.00;93059.16;2509076;23;20014;-89
2023/05/06 03:50:45;;;;;;;5.20;3.75;;;;;;;6.73;100.00;93056.16;2509676;23;20002;-87
2023/05/06 03:51:52;;;;;;;4.28;3.50;;;;;;;6.77;100.00;93057.63;2509009;23;20098;-87
2023/05/06 03:52:55;;;;;;;4.75;3.40;;;;;;;6.84;100.00;93058.72;2498393;23;20454;-88
2023/05/06 03:54:00;;;;;;;4.85;3.20;;;;;;;6.85;100.00;93057.56;2519949;23;20050;-86
2023/05/06 03:55:08;;;;;;;7.75;3.92;;;;;;;6.80;100.00;93069.34;2521732;23;20006;-85
2023/05/06 03:56:16;;;;;;;4.88;3.53;;;;;;;6.82;100.00;93053.78;2511190;23;20046;-85
2023/05/06 03:57:22;;;;;;;7.95;4.32;;;;;;;6.87;100.00;93061.34;2522888;23;19998;-86
2023/05/06 03:58:34;;;;;;;4.25;3.67;;;;;;;6.89;100.00;93056.41;2520767;23;20010;-84
2023/05/06 03:59:42;;;;;;;5.28;3.65;;;;;;;6.95;100.00;93060.13;2510819;23;20011;-83
2023/05/06 04:00:49;;;;;;;6.45;3.92;;;;;;;6.94;100.00;93055.22;2520929;23;20022;-87
2023/05/06 04:02:00;;;;;;;4.95;3.75;;;;;;;6.93;100.00;93061.66;2498297;23;20535;-87
2023/05/06 04:03:09;;;;;;;6.40;4.15;;;;;;;6.93;100.00;93059.75;2512858;23;20002;-85
2023/05/06 04:04:14;;;;;;;8.60;4.07;;;;;;;7.04;100.00;93065.00;2520592;23;20361;-85
2023/05/06 04:05:23;;;;;;;7.15;4.30;;;;;;;7.09;100.00;93069.13;2509448;23;20348;-86
2023/05/06 04:06:35;;;;;;;8.02;4.30;;;;;;;7.07;100.00;93062.31;2508679;23;20089;-86
2023/05/06 04:07:40;;;;;;;5.65;4.35;;;;;;;7.10;100.00;93067.97;2519774;23;20006;-83
2023/05/06 04:08:46;;;;;;;6.22;4.32;;;;;;;7.07;100.00;93067.63;2509211;23;20007;-86
2023/05/06 04:09:51;;;;;;;7.80;4.55;;;;;;;7.21;100.00;93071.28;2519901;23;20318;-86
2023/05/06 04:11:07;;;;;;;5.32;4.20;;;;;;;7.23;100.00;93068.97;2509950;23;20461;-87
2023/05/06 04:12:14;;;;;;;4.47;4.07;;;;;;;7.23;100.00;93068.97;2506419;23;20006;-86
2023/05/06 04:13:20;;;;;;;4.90;4.28;;;;;;;7.20;100.00;93073.19;2510599;23;20006;-87
2023/05/06 04:14:26;;;;;;;5.45;4.45;;;;;;;7.25;100.00;93070.09;2521681;23;20037;-83
2023/05/06 04:15:33;;;;;;;7.22;4.40;;;;;;;7.35;100.00;93071.13;2508971;23;20003;-87
2023/05/06 04:16:39;;;;;;;6.22;4.70;;;;;;;7.43;100.00;93071.81;2488855;23;20071;-85
2023/05/06 04:17:46;;;;;;;6.15;5.25;;;;;;;7.46;100.00;93068.34;2503569;23;20014;-83
2023/05/06 04:18:54;;;;;;;8.93;5.45;;;;;;;7.48;100.00;93069.47;2499702;23;20178;-85
2023/05/06 04:20:05;;;;;;;7.82;5.55;;;;;;;7.51;100.00;93071.34;2510441;23;20018;-85
2023/05/06 04:21:28;;;;;;;14.40;6.10;;;;;;;7.54;100.00;93065.22;2509386;23;20054;-84
2023/05/06 04:22:33;;;;;;;9.45;5.75;;;;;;;7.62;100.00;93065.91;2506381;23;20021;-85
2023/05/06 04:23:38;;;;;;;7.20;6.45;;;;;;;7.66;100.00;93077.25;2510086;23;20157;-85
2023/05/06 04:24:44;;;;;;;10.23;6.43;;;;;;;7.69;100.00;93060.50;2521845;23;20093;-85
2023/05/06 04:25:51;;;;;;;6.00;5.40;;;;;;;7.66;100.00;93065.88;2508562;23;20003;-87
2023/05/06 04:26:58;;;;;;;5.47;4.97;;;;;;;7.62;100.00;93065.91;2499695;23;20010;-85
2023/05/06 04:28:06;;;;;;;8.30;5.65;;;;;;;7.73;100.00;93076.44;2509490;23;20067;-86
2023/05/06 04:29:25;;;;;;;5.22;4.55;;;;;;;7.73;100.00;93073.78;2521858;23;20010;-87
2023/05/06 04:30:30;;;;;;;7.15;4.65;;;;;;;7.70;100.00;93069.25;2516853;23;20036;-86
2023/05/06 04:31:39;;;;;;;6.13;4.63;;;;;;;7.74;100.00;93070.72;2522382;23;20021;-85
2023/05/06 04:32:47;;;;;;;6.20;4.88;;;;;;;7.75;100.00;93079.44;2520863;23;20006;-86
2023/05/06 04:33:52;;;;;;;9.35;5.10;;;;;;;7.73;100.00;93081.75;2521163;23;20069;-84
2023/05/06 04:35:04;;;;;;;6.32;5.07;;;;;;;7.68;100.00;93074.97;2519018;23;20053;-84
2023/05/06 04:36:16;;;;;;;8.18;5.25;;;;;;;7.72;100.00;93066.94;2509905;23;20002;-85
2023/05/06 04:37:27;;;;;;;10.52;4.90;;;;;;;7.73;100.00;93066.53;2524665;23;20006;-84
2023/05/06 04:38:40;;;;;;;9.93;5.43;;;;;;;7.73;100.00;93071.88;2520512;23;20013;-88
2023/05/06 04:39:46;;;;;;;8.70;4.95;;;;;;;7.67;100.00;93078.00;2507102;23;20011;-85
2023/05/06 04:40:54;;;;;;;9.88;4.70;;;;;;;7.56;100.00;93076.22;2497242;23;20009;-87
2023/05/06 04:42:02;;;;;;;7.13;5.05;;;;;;;7.64;100.00;93078.78;2510865;23;20156;-84
2023/05/06 04:43:10;;;;;;;6.88;5.07;;;;;;;7.58;100.00;93075.81;2509209;23;20014;-85
2023/05/06 04:44:18;;;;;;;11.00;4.38;;;;;;;7.63;100.00;93079.97;2514828;23;19990;-85
2023/05/06 04:45:31;;;;;;;24.30;4.97;;;;;;;7.51;100.00;93075.91;2516920;23;20058;-84
2023/05/06 04:46:39;;;;;;;64.45;5.68;;;;;;;7.48;100.00;93088.09;2515572;23;20014;-85
2023/05/06 04:47:48;;;;;;;340.60;9.50;;;;;;;7.43;100.00;93083.22;2524347;23;20049;-85
2023/05/06 04:48:57;;;;;;;202.20;7.70;;;;;;;7.46;100.00;93089.63;2514343;23;20007;-88
2023/05/06 04:50:07;;;;;;;291.10;8.90;;;;;;;7.49;100.00;93086.94;2524218;23;20010;-85
2023/05/06 04:51:14;;;;;;;59.78;4.57;;;;;;;7.58;100.00;93089.13;2526730;23;20009;-85
2023/05/06 04:52:25;;;;;;;8.43;3.47;;;;;;;7.64;100.00;93092.09;2520739;23;20006;-86
2023/05/06 04:53:34;;;;;;;82.90;4.70;;;;;;;7.64;100.00;93089.44;2519057;23;20009;-86
2023/05/06 04:54:41;;;;;;;47.40;4.85;;;;;;;7.61;100.00;93092.91;2510280;23;20043;-88
2023/05/06 04:55:50;;;;;;;33.10;4.10;;;;;;;7.58;100.00;93097.09;2510310;23;20032;-86
2023/05/06 04:57:02;;;;;;;20.73;4.70;;;;;;;7.64;100.00;93100.06;2521720;23;20033;-85
2023/05/06 04:58:07;;;;;;;67.43;5.20;;;;;;;7.64;100.00;93100.06;2523148;23;20454;-88
2023/05/06 04:59:15;;;;;;;22.48;4.97;;;;;;;7.84;100.00;93106.31;2521046;23;20041;-86
2023/05/06 05:00:25;;;;;;;108.50;6.25;;;;;;;7.78;100.00;93106.00;2511274;23;20003;-86
2023/05/06 05:01:29;;;;;;;85.65;5.78;;;;;;;7.80;100.00;93098.38;2520657;23;20006;-86
2023/05/06 05:02:34;;;;;;;63.33;5.57;;;;;;;7.88;100.00;93107.03;2509715;23;20015;-85
2023/05/06 05:03:40;;;;;;;75.05;5.72;;;;;;;7.95;100.00;93100.88;2533797;23;20002;-85
2023/05/06 05:04:46;;;;;;;68.32;5.75;;;;;;;7.96;100.00;93105.81;2544565;23;20024;-88
2023/05/06 05:05:57;;;;;;;62.47;5.15;;;;;;;8.07;100.00;93105.66;2531644;23;20006;-85
2023/05/06 05:07:20;;;;;;;31.92;4.20;;;;;;;8.15;100.00;93098.34;2533518;23;20316;-84
2023/05/06 05:08:31;;;;;;;54.17;5.13;;;;;;;8.26;100.00;93104.31;2523498;23;20042;-85
2023/05/06 05:09:54;;;;;;;148.82;5.72;;;;;;;8.04;100.00;93098.50;2530953;23;19990;-85
2023/05/06 05:10:58;;;;;;;105.28;5.80;;;;;;;8.16;100.00;93105.19;2530981;23;20009;-87
2023/05/06 05:12:07;;;;;;;156.77;6.22;;;;;;;8.20;100.00;93103.22;2537687;23;20032;-86
2023/05/06 05:13:14;;;;;;;190.73;7.75;;;;;;;8.08;100.00;93105.28;2536192;23;20092;-86
2023/05/06 05:14:20;;;;;;;132.10;6.72;;;;;;;8.16;100.00;93097.94;2524359;23;20002;-84
2023/05/06 05:15:40;;;;;;;99.85;5.35;;;;;;;8.16;100.00;93097.94;2522799;23;20014;-84
2023/05/06 05:16:45;;;;;;;151.98;6.60;;;;;;;8.23;100.00;93102.44;2518083;23;20003;-84
2023/05/06 05:17:53;;;;;;;234.25;7.22;;;;;;;8.24;100.00;93095.94;2535211;23;20448;-85
2023/05/06 05:18:59;;;;;;;219.70;8.73;;;;;;;8.08;100.00;93093.88;2524115;23;20044;-84
2023/05/06 05:20:05;;;;;;;317.73;9.57;;;;;;;8.12;100.00;93097.25;2523286;23;20006;-85
2023/05/06 05:21:12;;;;;;;303.85;10.93;;;;;;;8.16;100.00;93100.59;2522711;23;20501;-83
2023/05/06 05:22:20;;;;;;;125.70;6.32;;;;;;;8.22;100.00;93093.69;2510840;23;20070;-87
2023/05/06 05:23:27;;;;;;;549.90;15.15;;;;;;;8.21;100.00;93094.84;2501398;23;20011;-86
2023/05/06 05:24:37;;;;;;;232.05;8.57;;;;;;;8.34;100.00;93092.41;2512774;23;20350;-87
2023/05/06 05:25:42;;;;;;;606.75;18.25;;;;;;;8.39;100.00;93099.22;2533143;23;20373;-86
2023/05/06 05:26:51;;;;;;;651.45;17.55;;;;;;;8.25;100.00;93092.91;2521390;23;20045;-86
2023/05/06 05:27:57;;;;;;;362.95;11.93;;;;;;;8.18;100.00;93097.56;2522423;23;20386;-84
2023/05/06 05:29:08;;;;;;;300.45;9.80;;;;;;;8.16;100.00;93107.84;2522120;23;20002;-85
2023/05/06 05:30:15;;;;;;;260.13;8.95;;;;;;;8.25;100.00;93103.56;2522290;23;20492;-85
2023/05/06 05:31:38;;;;;;;555.88;16.65;;;;;;;8.09;100.00;93106.03;2534736;23;20076;-84
2023/05/06 05:33:08;;;;;;;415.33;13.15;;;;;;;8.14;100.00;93102.91;2520986;23;20458;-85
2023/05/06 05:34:17;;;;;;;193.00;7.93;;;;;;;8.31;100.00;93104.59;2519914;23;20388;-84
2023/05/06 05:35:26;;;;;;;298.25;10.73;;;;;;;8.31;100.00;93103.84;2532130;23;20017;-86
2023/05/06 05:36:30;;;;;;;224.23;8.65;;;;;;;8.34;100.00;93097.72;2522608;23;20033;-85
2023/05/06 05:37:37;;;;;;;146.13;6.43;;;;;;;8.32;100.00;93108.00;2544455;23;20180;-84
2023/05/06 05:38:40;;;;;;;189.15;7.75;;;;;;;8.38;100.00;93100.34;2531628;23;20009;-84
2023/05/06 05:39:51;;;;;;;148.88;7.78;;;;;;;8.39;100.00;93099.22;2509631;23;20002;-87
2023/05/06 05:41:01;;;;;;;30.65;6.32;;;;;;;8.46;100.00;93104.44;2510605;23;20010;-85
2023/05/06 05:42:06;;;;;;;381.13;10.10;;;;;;;8.49;100.00;93106.28;2524576;23;20381;-84
2023/05/06 05:43:21;;;;;;;304.13;10.45;;;;;;;8.33;100.00;93104.19;2544949;23;20080;-84
2023/05/06 05:44:30;;;;;;;394.98;11.73;;;;;;;8.29;100.00;93100.81;2520643;23;20017;-85
2023/05/06 05:45:34;;;;;;;188.18;9.40;;;;;;;8.50;100.00;93105.13;2510330;23;20011;-84
2023/05/06 05:46:40;;;;;;;90.85;5.78;;;;;;;8.71;100.00;93101.41;2511333;23;20097;-84
2023/05/06 05:47:46;;;;;;;244.70;8.77;;;;;;;8.68;100.00;93099.53;2503953;23;20074;-86
2023/05/06 05:48:52;;;;;;;264.60;9.63;;;;;;;8.69;100.00;93098.38;2504015;23;20007;-86
2023/05/06 05:49:54;;;;;;;170.60;7.85;;;;;;;8.72;100.00;93101.00;2494362;23;20007;-85
2023/05/06 05:51:03;;;;;;;273.20;9.65;;;;;;;8.66;100.00;93097.28;2492919;23;20038;-87
2023/05/06 05:52:16;;;;;;;27.70;5.88;;;;;;;8.79;100.00;93094.81;2507047;23;20361;-86
2023/05/06 05:53:19;;;;;;;216.15;14.68;;;;;;;8.87;100.00;93093.56;2517982;23;20033;-85
2023/05/06 05:54:28;;;;;;;112.22;12.82;;;;;;;8.94;100.00;93096.09;2517752;23;20011;-88
2023/05/06 05:55:35;;;;;;;267.90;12.95;;;;;;;9.01;100.00;93095.25;2495145;23;20426;-86
2023/05/06 05:56:49;;;;;;;75.93;10.18;;;;;;;9.06;100.00;93089.44;2495841;23;20465;-87
2023/05/06 05:58:00;;;;;;;65.22;9.43;;;;;;;9.13;100.00;93097.34;2507597;23;20010;-86
2023/05/06 05:59:04;;;;;;;63.58;10.25;;;;;;;9.18;100.00;93086.19;2494752;23;20014;-86
2023/05/06 06:00:11;;;;;;;67.05;9.88;;;;;;;9.27;100.00;93089.09;2505923;23;20459;-87